Terminal Aerodrome Forecast
Issued by NWS Pocatello, ID

Home | Current Version | Previous Version | Text Only | Print | Product List | Glossary On
Versions: 1 2 3 4 5 6 7 8 9 10 11 12 13 14 15 16 17 18
000
FTUS45 KPIH 220500
TAFPIH
TAF
KPIH 220520Z 2206/2306 25008KT P6SM VCSH FEW080 BKN120
     FM221000 VRB06KT P6SM SCT130
     FM221800 22007KT P6SM FEW090 SCT180
     FM230200 VRB05KT P6SM FEW180=

USA.gov is the U.S. government's official web portal to all federal, state and local government web resources and services.